US-0297 weather

Kaiser Permanente Medical Center Santa Clara Heliport
Santa Clara, California, United States

Public forecast

Using degrees Fahrenheit for public forecast. Weather courtesy of forecast.io.

METAR (pilot weather report)

Closest report is Norman Y. Mineta San Jose International Airport, 3.8 nm (7.0 km) ENE. Retrieved 2019/06/17 21:53 UTC (8 minutes ago):

KSJC 172153Z 33010KT 10SM FEW070 27/14 A2982 RMK AO2 SLP099 T02670144 $

TAF (pilot weather forecast)

Closest forecast is Norman Y. Mineta San Jose International Airport, 3.8 nm (7.0 km) ENE. Retrieved 2019/06/17 18:34 UTC (3 hours ago):

TAF KSJC 171732Z 1718/1818 14009KT P6SM FEW120 FEW160 FM172100 31010KT P6SM SKC FM180400 33005KT P6SM SKC FM180800 VRB03KT P6SM FEW012 TEMPO 1813/1816 SCT012 FM181730 31005KT P6SM FEW012